sensor_id;sensor_type;location;lat;lon;timestamp;P1;durP1;ratioP1;P2;durP2;ratioP2
74632;SDS011;63139;52.018;8.552;2022-12-17T00:01:21;48.67;;;21.60;;
74632;SDS011;63139;52.018;8.552;2022-12-17T00:04:08;57.38;;;26.63;;
74632;SDS011;63139;52.018;8.552;2022-12-17T00:06:53;49.53;;;23.42;;
74632;SDS011;63139;52.018;8.552;2022-12-17T00:09:37;47.45;;;22.63;;
74632;SDS011;63139;52.018;8.552;2022-12-17T00:12:23;47.90;;;22.17;;
74632;SDS011;63139;52.018;8.552;2022-12-17T00:15:08;52.50;;;25.45;;
74632;SDS011;63139;52.018;8.552;2022-12-17T00:18:00;50.63;;;22.52;;
74632;SDS011;63139;52.018;8.552;2022-12-17T00:20:52;40.88;;;20.60;;
74632;SDS011;63139;52.018;8.552;2022-12-17T00:23:38;49.55;;;23.17;;
74632;SDS011;63139;52.018;8.552;2022-12-17T00:26:23;40.63;;;19.08;;
74632;SDS011;63139;52.018;8.552;2022-12-17T00:29:08;50.47;;;24.38;;
74632;SDS011;63139;52.018;8.552;2022-12-17T00:31:55;46.40;;;23.13;;
74632;SDS011;63139;52.018;8.552;2022-12-17T00:34:41;34.88;;;16.70;;
74632;SDS011;63139;52.018;8.552;2022-12-17T00:37:28;35.78;;;18.13;;
74632;SDS011;63139;52.018;8.552;2022-12-17T00:40:14;36.45;;;19.67;;
74632;SDS011;63139;52.018;8.552;2022-12-17T00:42:59;37.17;;;16.48;;
74632;SDS011;63139;52.018;8.552;2022-12-17T00:45:46;34.63;;;17.65;;
74632;SDS011;63139;52.018;8.552;2022-12-17T00:48:31;32.05;;;16.75;;
74632;SDS011;63139;52.018;8.552;2022-12-17T00:51:17;35.43;;;18.73;;
74632;SDS011;63139;52.018;8.552;2022-12-17T00:54:04;29.60;;;15.90;;
74632;SDS011;63139;52.018;8.552;2022-12-17T00:56:49;41.25;;;17.30;;
74632;SDS011;63139;52.018;8.552;2022-12-17T00:59:37;36.75;;;17.85;;
74632;SDS011;63139;52.018;8.552;2022-12-17T01:02:23;26.23;;;13.95;;
74632;SDS011;63139;52.018;8.552;2022-12-17T01:07:55;26.17;;;13.65;;
74632;SDS011;63139;52.018;8.552;2022-12-17T01:10:50;26.67;;;13.63;;
74632;SDS011;63139;52.018;8.552;2022-12-17T01:13:36;27.50;;;14.90;;
74632;SDS011;63139;52.018;8.552;2022-12-17T01:16:21;30.98;;;14.82;;
74632;SDS011;63139;52.018;8.552;2022-12-17T01:19:07;26.48;;;12.77;;
74632;SDS011;63139;52.018;8.552;2022-12-17T01:21:52;30.40;;;15.38;;
74632;SDS011;63139;52.018;8.552;2022-12-17T01:24:38;31.90;;;16.42;;
74632;SDS011;63139;52.018;8.552;2022-12-17T01:27:24;32.03;;;14.70;;
74632;SDS011;63139;52.018;8.552;2022-12-17T01:30:09;26.50;;;13.27;;
74632;SDS011;63139;52.018;8.552;2022-12-17T01:32:59;27.38;;;13.73;;
74632;SDS011;63139;52.018;8.552;2022-12-17T01:35:59;24.83;;;11.05;;
74632;SDS011;63139;52.018;8.552;2022-12-17T01:38:45;25.40;;;12.70;;
74632;SDS011;63139;52.018;8.552;2022-12-17T01:41:30;24.50;;;12.77;;
74632;SDS011;63139;52.018;8.552;2022-12-17T01:47:32;35.42;;;18.05;;
74632;SDS011;63139;52.018;8.552;2022-12-17T01:50:22;37.10;;;18.23;;
74632;SDS011;63139;52.018;8.552;2022-12-17T01:53:09;45.70;;;20.40;;
74632;SDS011;63139;52.018;8.552;2022-12-17T01:55:56;43.47;;;21.48;;
74632;SDS011;63139;52.018;8.552;2022-12-17T02:01:29;34.08;;;15.45;;
74632;SDS011;63139;52.018;8.552;2022-12-17T02:04:14;43.55;;;19.33;;
74632;SDS011;63139;52.018;8.552;2022-12-17T02:07:03;37.47;;;17.23;;
74632;SDS011;63139;52.018;8.552;2022-12-17T02:10:02;44.10;;;21.15;;
74632;SDS011;63139;52.018;8.552;2022-12-17T02:12:55;47.37;;;21.97;;
74632;SDS011;63139;52.018;8.552;2022-12-17T02:15:55;47.85;;;22.50;;
74632;SDS011;63139;52.018;8.552;2022-12-17T02:18:47;52.50;;;24.42;;
74632;SDS011;63139;52.018;8.552;2022-12-17T02:21:37;49.80;;;21.77;;
74632;SDS011;63139;52.018;8.552;2022-12-17T02:24:26;45.17;;;19.95;;
74632;SDS011;63139;52.018;8.552;2022-12-17T02:27:20;44.97;;;20.77;;
74632;SDS011;63139;52.018;8.552;2022-12-17T02:30:08;56.65;;;25.48;;
74632;SDS011;63139;52.018;8.552;2022-12-17T02:32:54;59.28;;;27.05;;
74632;SDS011;63139;52.018;8.552;2022-12-17T02:35:44;57.15;;;25.20;;
74632;SDS011;63139;52.018;8.552;2022-12-17T02:38:45;50.83;;;20.70;;
74632;SDS011;63139;52.018;8.552;2022-12-17T02:41:43;51.05;;;23.50;;
74632;SDS011;63139;52.018;8.552;2022-12-17T02:44:34;65.03;;;30.55;;
74632;SDS011;63139;52.018;8.552;2022-12-17T02:47:21;50.90;;;24.10;;
74632;SDS011;63139;52.018;8.552;2022-12-17T02:50:08;51.55;;;24.52;;
74632;SDS011;63139;52.018;8.552;2022-12-17T02:52:57;49.20;;;23.15;;
74632;SDS011;63139;52.018;8.552;2022-12-17T02:55:43;43.95;;;20.30;;
74632;SDS011;63139;52.018;8.552;2022-12-17T02:58:33;51.85;;;21.98;;
74632;SDS011;63139;52.018;8.552;2022-12-17T03:01:19;61.97;;;28.13;;
74632;SDS011;63139;52.018;8.552;2022-12-17T03:04:05;40.00;;;19.63;;
74632;SDS011;63139;52.018;8.552;2022-12-17T03:06:50;53.95;;;22.63;;
74632;SDS011;63139;52.018;8.552;2022-12-17T03:09:35;37.97;;;18.23;;
74632;SDS011;63139;52.018;8.552;2022-12-17T03:12:22;42.85;;;20.02;;
74632;SDS011;63139;52.018;8.552;2022-12-17T03:15:19;47.13;;;19.27;;
74632;SDS011;63139;52.018;8.552;2022-12-17T03:18:06;30.40;;;14.23;;
74632;SDS011;63139;52.018;8.552;2022-12-17T03:20:51;55.08;;;24.02;;
74632;SDS011;63139;52.018;8.552;2022-12-17T03:23:45;53.78;;;24.15;;
74632;SDS011;63139;52.018;8.552;2022-12-17T03:26:30;43.37;;;21.50;;
74632;SDS011;63139;52.018;8.552;2022-12-17T03:29:16;55.33;;;21.73;;
74632;SDS011;63139;52.018;8.552;2022-12-17T03:32:01;45.77;;;20.40;;
74632;SDS011;63139;52.018;8.552;2022-12-17T03:34:48;48.97;;;20.85;;
74632;SDS011;63139;52.018;8.552;2022-12-17T03:37:33;31.05;;;14.25;;
74632;SDS011;63139;52.018;8.552;2022-12-17T03:40:18;49.67;;;24.83;;
74632;SDS011;63139;52.018;8.552;2022-12-17T03:43:04;35.92;;;15.93;;
74632;SDS011;63139;52.018;8.552;2022-12-17T03:45:50;33.13;;;16.02;;
74632;SDS011;63139;52.018;8.552;2022-12-17T03:48:37;35.22;;;16.50;;
74632;SDS011;63139;52.018;8.552;2022-12-17T03:51:23;34.08;;;15.95;;
74632;SDS011;63139;52.018;8.552;2022-12-17T03:54:09;23.33;;;11.57;;
74632;SDS011;63139;52.018;8.552;2022-12-17T03:56:54;25.58;;;12.70;;
74632;SDS011;63139;52.018;8.552;2022-12-17T03:59:51;25.88;;;10.60;;
74632;SDS011;63139;52.018;8.552;2022-12-17T04:02:40;32.97;;;15.73;;
74632;SDS011;63139;52.018;8.552;2022-12-17T04:05:25;30.30;;;13.90;;
74632;SDS011;63139;52.018;8.552;2022-12-17T04:08:12;28.05;;;13.43;;
74632;SDS011;63139;52.018;8.552;2022-12-17T04:10:57;32.33;;;15.00;;
74632;SDS011;63139;52.018;8.552;2022-12-17T04:13:42;35.47;;;18.17;;
74632;SDS011;63139;52.018;8.552;2022-12-17T04:16:28;40.65;;;16.90;;
74632;SDS011;63139;52.018;8.552;2022-12-17T04:19:13;32.97;;;15.57;;
74632;SDS011;63139;52.018;8.552;2022-12-17T04:21:58;44.17;;;17.77;;
74632;SDS011;63139;52.018;8.552;2022-12-17T04:24:45;46.00;;;17.77;;
74632;SDS011;63139;52.018;8.552;2022-12-17T04:27:30;46.15;;;20.23;;
74632;SDS011;63139;52.018;8.552;2022-12-17T04:30:16;36.88;;;17.65;;
74632;SDS011;63139;52.018;8.552;2022-12-17T04:33:01;37.78;;;16.95;;
74632;SDS011;63139;52.018;8.552;2022-12-17T04:35:46;34.17;;;16.70;;
74632;SDS011;63139;52.018;8.552;2022-12-17T04:38:40;41.13;;;19.38;;
74632;SDS011;63139;52.018;8.552;2022-12-17T04:41:27;46.95;;;20.13;;
74632;SDS011;63139;52.018;8.552;2022-12-17T04:44:12;46.78;;;21.45;;
74632;SDS011;63139;52.018;8.552;2022-12-17T04:46:58;39.20;;;18.10;;
74632;SDS011;63139;52.018;8.552;2022-12-17T04:49:43;36.40;;;16.27;;
74632;SDS011;63139;52.018;8.552;2022-12-17T04:52:28;32.50;;;13.43;;
74632;SDS011;63139;52.018;8.552;2022-12-17T04:55:13;37.00;;;15.32;;
74632;SDS011;63139;52.018;8.552;2022-12-17T04:58:01;32.60;;;13.93;;
74632;SDS011;63139;52.018;8.552;2022-12-17T05:00:49;28.10;;;12.98;;
74632;SDS011;63139;52.018;8.552;2022-12-17T05:03:35;31.48;;;13.00;;
74632;SDS011;63139;52.018;8.552;2022-12-17T05:06:20;25.93;;;12.60;;
74632;SDS011;63139;52.018;8.552;2022-12-17T05:09:05;32.15;;;13.75;;
74632;SDS011;63139;52.018;8.552;2022-12-17T05:11:51;34.83;;;15.98;;
74632;SDS011;63139;52.018;8.552;2022-12-17T05:14:52;42.40;;;17.85;;
74632;SDS011;63139;52.018;8.552;2022-12-17T05:17:37;30.65;;;14.80;;
74632;SDS011;63139;52.018;8.552;2022-12-17T05:20:31;31.65;;;14.40;;
74632;SDS011;63139;52.018;8.552;2022-12-17T05:26:03;44.38;;;17.75;;
74632;SDS011;63139;52.018;8.552;2022-12-17T05:28:54;31.60;;;14.40;;
74632;SDS011;63139;52.018;8.552;2022-12-17T05:31:42;24.55;;;11.73;;
74632;SDS011;63139;52.018;8.552;2022-12-17T05:34:28;31.38;;;13.52;;
74632;SDS011;63139;52.018;8.552;2022-12-17T05:37:13;37.93;;;16.17;;
74632;SDS011;63139;52.018;8.552;2022-12-17T05:39:58;25.20;;;12.17;;
74632;SDS011;63139;52.018;8.552;2022-12-17T05:42:52;36.40;;;16.55;;
74632;SDS011;63139;52.018;8.552;2022-12-17T05:45:37;28.08;;;13.35;;
74632;SDS011;63139;52.018;8.552;2022-12-17T05:48:24;33.17;;;16.60;;
74632;SDS011;63139;52.018;8.552;2022-12-17T05:51:09;26.02;;;11.63;;
74632;SDS011;63139;52.018;8.552;2022-12-17T05:53:51;28.52;;;11.20;;
74632;SDS011;63139;52.018;8.552;2022-12-17T05:56:36;22.23;;;12.63;;
74632;SDS011;63139;52.018;8.552;2022-12-17T05:59:21;26.25;;;12.90;;
74632;SDS011;63139;52.018;8.552;2022-12-17T06:02:07;28.10;;;13.07;;
74632;SDS011;63139;52.018;8.552;2022-12-17T06:04:54;21.52;;;11.48;;
74632;SDS011;63139;52.018;8.552;2022-12-17T06:07:39;24.38;;;12.93;;
74632;SDS011;63139;52.018;8.552;2022-12-17T06:10:24;37.83;;;17.43;;
74632;SDS011;63139;52.018;8.552;2022-12-17T06:13:10;28.00;;;13.10;;
74632;SDS011;63139;52.018;8.552;2022-12-17T06:15:55;34.92;;;16.98;;
74632;SDS011;63139;52.018;8.552;2022-12-17T06:18:41;29.38;;;16.60;;
74632;SDS011;63139;52.018;8.552;2022-12-17T06:21:28;36.95;;;18.33;;
74632;SDS011;63139;52.018;8.552;2022-12-17T06:24:13;29.65;;;14.43;;
74632;SDS011;63139;52.018;8.552;2022-12-17T06:26:58;23.20;;;13.17;;
74632;SDS011;63139;52.018;8.552;2022-12-17T06:29:43;22.80;;;10.25;;
74632;SDS011;63139;52.018;8.552;2022-12-17T06:32:29;26.60;;;12.95;;
74632;SDS011;63139;52.018;8.552;2022-12-17T06:35:14;34.30;;;16.90;;
74632;SDS011;63139;52.018;8.552;2022-12-17T06:38:03;33.30;;;16.03;;
74632;SDS011;63139;52.018;8.552;2022-12-17T06:40:50;32.10;;;16.08;;
74632;SDS011;63139;52.018;8.552;2022-12-17T06:43:35;34.28;;;18.17;;
74632;SDS011;63139;52.018;8.552;2022-12-17T06:46:20;33.20;;;16.55;;
74632;SDS011;63139;52.018;8.552;2022-12-17T06:49:06;36.03;;;17.30;;
74632;SDS011;63139;52.018;8.552;2022-12-17T06:51:51;34.55;;;16.60;;
74632;SDS011;63139;52.018;8.552;2022-12-17T06:54:38;35.65;;;16.98;;
74632;SDS011;63139;52.018;8.552;2022-12-17T06:57:23;42.50;;;18.92;;
74632;SDS011;63139;52.018;8.552;2022-12-17T07:00:15;38.05;;;17.65;;
74632;SDS011;63139;52.018;8.552;2022-12-17T07:03:02;42.30;;;18.93;;
74632;SDS011;63139;52.018;8.552;2022-12-17T07:05:48;30.45;;;13.85;;
74632;SDS011;63139;52.018;8.552;2022-12-17T07:08:33;31.40;;;15.02;;
74632;SDS011;63139;52.018;8.552;2022-12-17T07:11:20;28.63;;;14.73;;
74632;SDS011;63139;52.018;8.552;2022-12-17T07:14:05;39.10;;;19.27;;
74632;SDS011;63139;52.018;8.552;2022-12-17T07:16:50;33.00;;;16.08;;
74632;SDS011;63139;52.018;8.552;2022-12-17T07:19:36;37.92;;;17.52;;
74632;SDS011;63139;52.018;8.552;2022-12-17T07:22:21;44.70;;;19.58;;
74632;SDS011;63139;52.018;8.552;2022-12-17T07:25:07;45.70;;;19.00;;
74632;SDS011;63139;52.018;8.552;2022-12-17T07:27:54;43.40;;;20.27;;
74632;SDS011;63139;52.018;8.552;2022-12-17T07:30:39;48.47;;;20.33;;
74632;SDS011;63139;52.018;8.552;2022-12-17T07:33:24;40.80;;;17.53;;
74632;SDS011;63139;52.018;8.552;2022-12-17T07:36:10;48.00;;;19.40;;
74632;SDS011;63139;52.018;8.552;2022-12-17T07:38:55;45.40;;;19.98;;
74632;SDS011;63139;52.018;8.552;2022-12-17T07:41:41;52.37;;;21.27;;
74632;SDS011;63139;52.018;8.552;2022-12-17T07:44:28;49.67;;;20.50;;
74632;SDS011;63139;52.018;8.552;2022-12-17T07:47:13;42.90;;;17.38;;
74632;SDS011;63139;52.018;8.552;2022-12-17T07:49:58;57.92;;;23.27;;
74632;SDS011;63139;52.018;8.552;2022-12-17T07:52:44;45.47;;;20.27;;
74632;SDS011;63139;52.018;8.552;2022-12-17T07:55:29;42.03;;;15.88;;
74632;SDS011;63139;52.018;8.552;2022-12-17T07:58:14;50.90;;;20.77;;
74632;SDS011;63139;52.018;8.552;2022-12-17T08:01:01;51.60;;;19.77;;
74632;SDS011;63139;52.018;8.552;2022-12-17T08:03:49;49.88;;;20.70;;
74632;SDS011;63139;52.018;8.552;2022-12-17T08:06:34;50.40;;;20.13;;
74632;SDS011;63139;52.018;8.552;2022-12-17T08:09:28;48.20;;;20.50;;
74632;SDS011;63139;52.018;8.552;2022-12-17T08:12:13;54.75;;;21.13;;
74632;SDS011;63139;52.018;8.552;2022-12-17T08:14:59;52.00;;;22.97;;
74632;SDS011;63139;52.018;8.552;2022-12-17T08:17:45;41.47;;;17.70;;
74632;SDS011;63139;52.018;8.552;2022-12-17T08:20:31;43.58;;;18.25;;
74632;SDS011;63139;52.018;8.552;2022-12-17T08:23:16;39.38;;;17.95;;
74632;SDS011;63139;52.018;8.552;2022-12-17T08:26:02;45.75;;;20.50;;
74632;SDS011;63139;52.018;8.552;2022-12-17T08:28:47;43.50;;;19.20;;
74632;SDS011;63139;52.018;8.552;2022-12-17T08:31:32;35.78;;;15.20;;
74632;SDS011;63139;52.018;8.552;2022-12-17T08:34:19;34.28;;;14.23;;
74632;SDS011;63139;52.018;8.552;2022-12-17T08:37:04;30.17;;;12.68;;
74632;SDS011;63139;52.018;8.552;2022-12-17T08:39:49;35.70;;;15.37;;
74632;SDS011;63139;52.018;8.552;2022-12-17T08:42:35;36.63;;;16.15;;
74632;SDS011;63139;52.018;8.552;2022-12-17T08:45:25;48.95;;;18.55;;
74632;SDS011;63139;52.018;8.552;2022-12-17T08:48:11;40.70;;;17.83;;
74632;SDS011;63139;52.018;8.552;2022-12-17T08:50:57;41.13;;;16.35;;
74632;SDS011;63139;52.018;8.552;2022-12-17T08:53:43;35.88;;;16.05;;
74632;SDS011;63139;52.018;8.552;2022-12-17T08:56:28;34.53;;;15.80;;
74632;SDS011;63139;52.018;8.552;2022-12-17T08:59:19;52.70;;;19.52;;
74632;SDS011;63139;52.018;8.552;2022-12-17T09:02:04;35.80;;;15.90;;
74632;SDS011;63139;52.018;8.552;2022-12-17T09:04:50;36.30;;;14.48;;
74632;SDS011;63139;52.018;8.552;2022-12-17T09:07:47;39.05;;;15.52;;
74632;SDS011;63139;52.018;8.552;2022-12-17T09:10:32;35.78;;;15.68;;
74632;SDS011;63139;52.018;8.552;2022-12-17T09:13:17;39.33;;;17.33;;
74632;SDS011;63139;52.018;8.552;2022-12-17T09:16:04;46.28;;;18.55;;
74632;SDS011;63139;52.018;8.552;2022-12-17T09:21:31;45.47;;;19.23;;
74632;SDS011;63139;52.018;8.552;2022-12-17T09:24:18;48.80;;;20.77;;
74632;SDS011;63139;52.018;8.552;2022-12-17T09:27:06;57.20;;;21.75;;
74632;SDS011;63139;52.018;8.552;2022-12-17T09:29:52;43.55;;;19.13;;
74632;SDS011;63139;52.018;8.552;2022-12-17T09:32:37;42.65;;;15.55;;
74632;SDS011;63139;52.018;8.552;2022-12-17T09:35:28;43.60;;;19.13;;
74632;SDS011;63139;52.018;8.552;2022-12-17T09:38:13;41.42;;;18.10;;
74632;SDS011;63139;52.018;8.552;2022-12-17T09:41:01;41.57;;;19.53;;
74632;SDS011;63139;52.018;8.552;2022-12-17T09:43:58;34.00;;;14.73;;
74632;SDS011;63139;52.018;8.552;2022-12-17T09:46:47;37.33;;;16.10;;
74632;SDS011;63139;52.018;8.552;2022-12-17T09:49:35;38.00;;;16.02;;
74632;SDS011;63139;52.018;8.552;2022-12-17T09:52:21;29.40;;;13.80;;
74632;SDS011;63139;52.018;8.552;2022-12-17T09:55:13;32.97;;;13.63;;
74632;SDS011;63139;52.018;8.552;2022-12-17T09:58:02;31.60;;;13.73;;
74632;SDS011;63139;52.018;8.552;2022-12-17T10:00:47;45.03;;;19.25;;
74632;SDS011;63139;52.018;8.552;2022-12-17T10:03:34;45.50;;;18.88;;
74632;SDS011;63139;52.018;8.552;2022-12-17T10:06:23;33.85;;;14.75;;
74632;SDS011;63139;52.018;8.552;2022-12-17T10:09:12;35.10;;;14.52;;
74632;SDS011;63139;52.018;8.552;2022-12-17T10:11:59;42.70;;;17.60;;
74632;SDS011;63139;52.018;8.552;2022-12-17T10:17:41;31.95;;;13.90;;
74632;SDS011;63139;52.018;8.552;2022-12-17T10:20:28;29.70;;;13.27;;
74632;SDS011;63139;52.018;8.552;2022-12-17T10:23:23;33.63;;;16.10;;
74632;SDS011;63139;52.018;8.552;2022-12-17T10:26:13;35.47;;;16.10;;
74632;SDS011;63139;52.018;8.552;2022-12-17T10:29:02;39.60;;;16.42;;
74632;SDS011;63139;52.018;8.552;2022-12-17T10:31:50;41.22;;;19.58;;
74632;SDS011;63139;52.018;8.552;2022-12-17T10:34:36;40.22;;;18.38;;
74632;SDS011;63139;52.018;8.552;2022-12-17T10:37:30;43.67;;;19.75;;
74632;SDS011;63139;52.018;8.552;2022-12-17T10:40:18;43.03;;;20.15;;
74632;SDS011;63139;52.018;8.552;2022-12-17T10:46:23;38.88;;;18.15;;
74632;SDS011;63139;52.018;8.552;2022-12-17T10:49:12;38.63;;;18.30;;
74632;SDS011;63139;52.018;8.552;2022-12-17T10:52:00;36.63;;;17.63;;
74632;SDS011;63139;52.018;8.552;2022-12-17T10:54:58;42.00;;;20.02;;
74632;SDS011;63139;52.018;8.552;2022-12-17T10:57:46;33.90;;;15.40;;
74632;SDS011;63139;52.018;8.552;2022-12-17T11:00:35;37.60;;;15.77;;
74632;SDS011;63139;52.018;8.552;2022-12-17T11:03:23;33.88;;;17.52;;
74632;SDS011;63139;52.018;8.552;2022-12-17T11:06:13;41.72;;;20.38;;
74632;SDS011;63139;52.018;8.552;2022-12-17T11:09:10;37.78;;;17.98;;
74632;SDS011;63139;52.018;8.552;2022-12-17T11:12:03;40.40;;;19.45;;
74632;SDS011;63139;52.018;8.552;2022-12-17T11:14:57;36.65;;;18.27;;
74632;SDS011;63139;52.018;8.552;2022-12-17T11:17:46;46.63;;;20.63;;
74632;SDS011;63139;52.018;8.552;2022-12-17T11:20:40;40.92;;;18.92;;
74632;SDS011;63139;52.018;8.552;2022-12-17T11:23:33;45.37;;;21.03;;
74632;SDS011;63139;52.018;8.552;2022-12-17T11:26:21;43.35;;;19.90;;
74632;SDS011;63139;52.018;8.552;2022-12-17T11:29:10;41.20;;;18.10;;
74632;SDS011;63139;52.018;8.552;2022-12-17T11:32:03;44.08;;;20.73;;
74632;SDS011;63139;52.018;8.552;2022-12-17T11:35:00;37.13;;;19.33;;
74632;SDS011;63139;52.018;8.552;2022-12-17T11:37:52;35.47;;;15.80;;
74632;SDS011;63139;52.018;8.552;2022-12-17T11:40:46;42.60;;;19.15;;
74632;SDS011;63139;52.018;8.552;2022-12-17T11:43:39;48.33;;;21.10;;
74632;SDS011;63139;52.018;8.552;2022-12-17T11:46:47;37.30;;;18.77;;
74632;SDS011;63139;52.018;8.552;2022-12-17T11:49:43;46.88;;;21.25;;
74632;SDS011;63139;52.018;8.552;2022-12-17T11:52:35;39.33;;;19.67;;
74632;SDS011;63139;52.018;8.552;2022-12-17T11:55:30;44.65;;;21.00;;
74632;SDS011;63139;52.018;8.552;2022-12-17T11:58:23;42.88;;;19.52;;
74632;SDS011;63139;52.018;8.552;2022-12-17T12:01:16;46.10;;;21.27;;
74632;SDS011;63139;52.018;8.552;2022-12-17T12:04:11;31.52;;;15.02;;
74632;SDS011;63139;52.018;8.552;2022-12-17T12:07:11;38.95;;;18.77;;
74632;SDS011;63139;52.018;8.552;2022-12-17T12:10:04;45.00;;;21.80;;
74632;SDS011;63139;52.018;8.552;2022-12-17T12:12:58;35.35;;;16.38;;
74632;SDS011;63139;52.018;8.552;2022-12-17T12:15:56;46.10;;;20.00;;
74632;SDS011;63139;52.018;8.552;2022-12-17T12:18:50;45.58;;;22.05;;
74632;SDS011;63139;52.018;8.552;2022-12-17T12:21:47;36.93;;;16.40;;
74632;SDS011;63139;52.018;8.552;2022-12-17T12:24:45;33.33;;;17.23;;
74632;SDS011;63139;52.018;8.552;2022-12-17T12:27:47;37.85;;;19.52;;
74632;SDS011;63139;52.018;8.552;2022-12-17T12:30:40;31.23;;;14.35;;
74632;SDS011;63139;52.018;8.552;2022-12-17T12:33:35;29.05;;;14.27;;
74632;SDS011;63139;52.018;8.552;2022-12-17T12:36:26;49.13;;;22.70;;
74632;SDS011;63139;52.018;8.552;2022-12-17T12:39:12;40.87;;;20.30;;
74632;SDS011;63139;52.018;8.552;2022-12-17T12:42:05;40.03;;;20.17;;
74632;SDS011;63139;52.018;8.552;2022-12-17T12:44:58;46.80;;;21.45;;
74632;SDS011;63139;52.018;8.552;2022-12-17T12:47:49;43.83;;;21.13;;
74632;SDS011;63139;52.018;8.552;2022-12-17T12:50:47;37.03;;;16.88;;
74632;SDS011;63139;52.018;8.552;2022-12-17T12:53:38;40.28;;;18.15;;
74632;SDS011;63139;52.018;8.552;2022-12-17T12:56:24;39.78;;;16.23;;
74632;SDS011;63139;52.018;8.552;2022-12-17T12:59:15;48.63;;;22.73;;
74632;SDS011;63139;52.018;8.552;2022-12-17T13:02:12;43.35;;;20.55;;
74632;SDS011;63139;52.018;8.552;2022-12-17T13:05:15;41.13;;;20.10;;
74632;SDS011;63139;52.018;8.552;2022-12-17T13:08:15;43.85;;;22.73;;
74632;SDS011;63139;52.018;8.552;2022-12-17T13:10:46;40.28;;;19.55;;
74632;SDS011;63139;52.018;8.552;2022-12-17T13:13:19;52.10;;;24.45;;
74632;SDS011;63139;52.018;8.552;2022-12-17T13:16:00;47.92;;;22.08;;
74632;SDS011;63139;52.018;8.552;2022-12-17T13:18:32;39.10;;;18.70;;
74632;SDS011;63139;52.018;8.552;2022-12-17T13:21:03;42.75;;;18.67;;
74632;SDS011;63139;52.018;8.552;2022-12-17T13:23:35;46.75;;;21.38;;
74632;SDS011;63139;52.018;8.552;2022-12-17T13:26:12;48.95;;;23.20;;
74632;SDS011;63139;52.018;8.552;2022-12-17T13:28:43;50.67;;;22.40;;
74632;SDS011;63139;52.018;8.552;2022-12-17T13:31:16;35.72;;;18.13;;
74632;SDS011;63139;52.018;8.552;2022-12-17T13:33:50;50.95;;;22.50;;
74632;SDS011;63139;52.018;8.552;2022-12-17T13:36:26;49.97;;;23.98;;
74632;SDS011;63139;52.018;8.552;2022-12-17T13:39:01;45.05;;;21.42;;
74632;SDS011;63139;52.018;8.552;2022-12-17T13:41:33;47.60;;;21.88;;
74632;SDS011;63139;52.018;8.552;2022-12-17T13:44:15;44.67;;;21.63;;
74632;SDS011;63139;52.018;8.552;2022-12-17T13:46:47;35.60;;;16.92;;
74632;SDS011;63139;52.018;8.552;2022-12-17T13:49:16;40.17;;;18.27;;
74632;SDS011;63139;52.018;8.552;2022-12-17T13:51:46;43.30;;;21.15;;
74632;SDS011;63139;52.018;8.552;2022-12-17T13:54:17;45.97;;;19.80;;
74632;SDS011;63139;52.018;8.552;2022-12-17T13:56:45;46.17;;;20.08;;
74632;SDS011;63139;52.018;8.552;2022-12-17T13:59:16;36.42;;;16.30;;
74632;SDS011;63139;52.018;8.552;2022-12-17T14:01:46;37.70;;;16.35;;
74632;SDS011;63139;52.018;8.552;2022-12-17T14:04:20;43.65;;;19.10;;
74632;SDS011;63139;52.018;8.552;2022-12-17T14:06:49;37.38;;;17.00;;
74632;SDS011;63139;52.018;8.552;2022-12-17T14:09:19;41.05;;;17.15;;
74632;SDS011;63139;52.018;8.552;2022-12-17T14:11:48;44.30;;;17.90;;
74632;SDS011;63139;52.018;8.552;2022-12-17T14:14:35;45.30;;;21.90;;
74632;SDS011;63139;52.018;8.552;2022-12-17T14:17:04;54.08;;;24.13;;
74632;SDS011;63139;52.018;8.552;2022-12-17T14:19:33;49.55;;;23.05;;
74632;SDS011;63139;52.018;8.552;2022-12-17T14:22:00;48.33;;;21.33;;
74632;SDS011;63139;52.018;8.552;2022-12-17T14:24:30;45.00;;;22.20;;
74632;SDS011;63139;52.018;8.552;2022-12-17T14:26:58;47.95;;;21.38;;
74632;SDS011;63139;52.018;8.552;2022-12-17T14:29:27;42.03;;;20.98;;
74632;SDS011;63139;52.018;8.552;2022-12-17T14:31:57;44.30;;;22.10;;
74632;SDS011;63139;52.018;8.552;2022-12-17T14:34:26;49.05;;;22.63;;
74632;SDS011;63139;52.018;8.552;2022-12-17T14:36:55;36.67;;;16.40;;
74632;SDS011;63139;52.018;8.552;2022-12-17T14:39:25;50.13;;;23.35;;
74632;SDS011;63139;52.018;8.552;2022-12-17T14:41:57;49.50;;;21.73;;
74632;SDS011;63139;52.018;8.552;2022-12-17T14:44:51;40.40;;;18.42;;
74632;SDS011;63139;52.018;8.552;2022-12-17T14:47:21;39.90;;;16.92;;
74632;SDS011;63139;52.018;8.552;2022-12-17T14:49:53;38.28;;;17.63;;
74632;SDS011;63139;52.018;8.552;2022-12-17T14:52:29;42.83;;;18.85;;
74632;SDS011;63139;52.018;8.552;2022-12-17T14:55:19;34.33;;;16.05;;
74632;SDS011;63139;52.018;8.552;2022-12-17T14:57:50;39.50;;;16.65;;
74632;SDS011;63139;52.018;8.552;2022-12-17T15:00:19;35.83;;;17.45;;
74632;SDS011;63139;52.018;8.552;2022-12-17T15:02:49;33.97;;;15.52;;
74632;SDS011;63139;52.018;8.552;2022-12-17T15:05:18;36.35;;;16.42;;
74632;SDS011;63139;52.018;8.552;2022-12-17T15:07:47;46.65;;;20.88;;
74632;SDS011;63139;52.018;8.552;2022-12-17T15:10:15;44.88;;;18.58;;
74632;SDS011;63139;52.018;8.552;2022-12-17T15:12:46;38.70;;;18.08;;
74632;SDS011;63139;52.018;8.552;2022-12-17T15:15:17;41.42;;;18.05;;
74632;SDS011;63139;52.018;8.552;2022-12-17T15:17:47;37.42;;;17.52;;
74632;SDS011;63139;52.018;8.552;2022-12-17T15:20:15;50.22;;;21.67;;
74632;SDS011;63139;52.018;8.552;2022-12-17T15:22:44;40.03;;;19.10;;
74632;SDS011;63139;52.018;8.552;2022-12-17T15:25:13;53.10;;;24.92;;
74632;SDS011;63139;52.018;8.552;2022-12-17T15:27:42;41.10;;;17.92;;
74632;SDS011;63139;52.018;8.552;2022-12-17T15:30:12;48.08;;;21.45;;
74632;SDS011;63139;52.018;8.552;2022-12-17T15:32:42;40.08;;;18.40;;
74632;SDS011;63139;52.018;8.552;2022-12-17T15:35:10;42.45;;;17.05;;
74632;SDS011;63139;52.018;8.552;2022-12-17T15:37:39;40.60;;;19.08;;
74632;SDS011;63139;52.018;8.552;2022-12-17T15:40:07;48.92;;;20.38;;
74632;SDS011;63139;52.018;8.552;2022-12-17T15:42:37;43.03;;;18.13;;
74632;SDS011;63139;52.018;8.552;2022-12-17T15:45:28;48.75;;;21.75;;
74632;SDS011;63139;52.018;8.552;2022-12-17T15:47:58;46.13;;;21.05;;
74632;SDS011;63139;52.018;8.552;2022-12-17T15:50:26;47.60;;;21.27;;
74632;SDS011;63139;52.018;8.552;2022-12-17T15:52:54;49.92;;;21.83;;
74632;SDS011;63139;52.018;8.552;2022-12-17T15:55:21;45.53;;;20.10;;
74632;SDS011;63139;52.018;8.552;2022-12-17T15:57:49;41.08;;;18.55;;
74632;SDS011;63139;52.018;8.552;2022-12-17T16:00:17;42.78;;;18.95;;
74632;SDS011;63139;52.018;8.552;2022-12-17T16:02:45;41.78;;;19.50;;
74632;SDS011;63139;52.018;8.552;2022-12-17T16:05:15;42.83;;;18.10;;
74632;SDS011;63139;52.018;8.552;2022-12-17T16:07:44;50.88;;;19.27;;
74632;SDS011;63139;52.018;8.552;2022-12-17T16:10:12;58.72;;;25.65;;
74632;SDS011;63139;52.018;8.552;2022-12-17T16:12:41;52.85;;;21.23;;
74632;SDS011;63139;52.018;8.552;2022-12-17T16:15:09;54.80;;;23.48;;
74632;SDS011;63139;52.018;8.552;2022-12-17T16:17:38;40.38;;;18.38;;
74632;SDS011;63139;52.018;8.552;2022-12-17T16:20:06;44.33;;;19.90;;
74632;SDS011;63139;52.018;8.552;2022-12-17T16:22:36;52.30;;;22.95;;